Terminal Aerodrome Forecast
Issued by NWS Sterling, VA

Home | Current Version | Previous Version | Text Only | Print | Product List | Glossary On
Versions: 1 2 3 4 5 6 7 8 9 10 11 12 13 14 15 16 17 18 19 20 21 22 23 24
000
FTUS41 KLWX 152057 AAB
TAFIAD
TAF AMD
KIAD 152057Z 1521/1624 00000KT P6SM OVC025
     FM152200 VRB03KT P6SM BKN045
     FM152300 26004KT P6SM SCT060
     FM160000 25005KT P6SM FEW250
     FM161400 23009KT P6SM SCT250
     FM162300 25005KT P6SM FEW250=

USA.gov is the U.S. government's official web portal to all federal, state and local government web resources and services.